createdAt,value
2018-07-07T00:00:20.707Z,53.12
2018-07-07T00:01:20.623Z,53.31
2018-07-07T00:03:13.901Z,53.70
2018-07-07T00:04:13.840Z,53.50
2018-07-07T00:06:07.242Z,53.70
2018-07-07T00:07:07.055Z,53.22
2018-07-07T00:09:00.333Z,53.70
2018-07-07T00:10:00.273Z,53.70
2018-07-07T00:11:53.567Z,54.46
2018-07-07T00:12:53.489Z,54.56
2018-07-07T00:14:46.783Z,55.13
2018-07-07T00:15:46.703Z,55.13
2018-07-07T00:17:39.981Z,55.62
2018-07-07T00:18:39.920Z,56.38
2018-07-07T00:20:33.215Z,56.38
2018-07-07T00:21:33.132Z,57.31
2018-07-07T00:23:26.411Z,57.12
2018-07-07T00:24:26.351Z,57.79
2018-07-07T00:26:20.646Z,58.17
2018-07-07T00:27:20.568Z,58.17
2018-07-07T00:29:13.843Z,58.46
2018-07-07T00:30:13.782Z,58.46
2018-07-07T00:32:07.100Z,58.94
2018-07-07T00:33:06.996Z,58.75
2018-07-07T00:35:01.472Z,58.94
2018-07-07T00:36:01.411Z,59.52
2018-07-07T00:37:54.696Z,59.52
2018-07-07T00:38:54.617Z,59.42
2018-07-07T00:40:47.914Z,59.90
2018-07-07T00:41:47.829Z,60.09
2018-07-07T00:43:41.110Z,60.67
2018-07-07T00:44:41.047Z,61.15
2018-07-07T00:46:34.343Z,61.53
2018-07-07T00:47:34.263Z,62.59
2018-07-07T00:49:27.539Z,63.60
2018-07-07T00:50:27.475Z,63.35
2018-07-07T00:52:20.774Z,63.64
2018-07-07T00:53:20.688Z,63.54
2018-07-07T00:55:13.967Z,63.35
2018-07-07T00:56:13.909Z,63.83
2018-07-07T00:58:07.191Z,63.26
2018-07-07T00:59:07.110Z,63.83
2018-07-07T01:01:00.406Z,64.22
2018-07-07T01:02:00.324Z,64.18
2018-07-07T01:03:53.601Z,64.18
2018-07-07T01:04:53.538Z,64.47
2018-07-07T01:06:46.940Z,65.23
2018-07-07T01:07:46.753Z,65.52
2018-07-07T01:09:40.031Z,66.67
2018-07-07T01:10:39.967Z,66.38
2018-07-07T01:12:33.494Z,66.86
2018-07-07T01:13:33.408Z,66.48
2018-07-07T01:15:26.684Z,66.86
2018-07-07T01:16:26.622Z,66.77
2018-07-07T01:18:19.908Z,66.67
2018-07-07T01:19:19.827Z,67.15
2018-07-07T01:21:13.970Z,67.63
2018-07-07T01:22:13.888Z,67.25
2018-07-07T01:24:07.168Z,68.21
2018-07-07T01:25:07.102Z,68.40
2018-07-07T01:27:00.396Z,69.07
2018-07-07T01:28:00.316Z,68.97
2018-07-07T01:29:53.591Z,69.35
2018-07-07T01:30:53.529Z,69.54
2018-07-07T01:32:46.831Z,70.03
2018-07-07T01:33:46.748Z,70.21
2018-07-07T01:35:40.026Z,70.03
2018-07-07T01:36:39.961Z,70.41
2018-07-07T01:38:33.249Z,70.95
2018-07-07T01:39:33.165Z,71.23
2018-07-07T01:41:26.474Z,71.42
2018-07-07T01:42:26.378Z,71.14
2018-07-07T01:44:19.655Z,71.42
2018-07-07T01:45:19.590Z,71.23
2018-07-07T01:47:12.885Z,71.08
2018-07-07T01:48:12.802Z,70.98
2018-07-07T01:50:06.083Z,70.98
2018-07-07T01:51:06.014Z,70.98
2018-07-07T01:52:59.482Z,71.75
2018-07-07T01:53:59.399Z,71.94
2018-07-07T01:55:52.678Z,72.58
2018-07-07T01:56:52.611Z,73.24
2018-07-07T01:58:45.901Z,73.63
2018-07-07T01:59:45.818Z,73.91
2018-07-07T02:01:39.095Z,74.11
2018-07-07T02:02:39.031Z,74.11
2018-07-07T02:04:32.330Z,74.97
2018-07-07T02:05:32.246Z,74.87
2018-07-07T02:07:25.539Z,75.26
2018-07-07T02:08:25.455Z,74.87
2018-07-07T02:10:18.739Z,75.83
2018-07-07T02:11:18.668Z,75.54
2018-07-07T02:13:11.974Z,75.26
2018-07-07T02:14:11.893Z,75.45
2018-07-07T02:16:05.169Z,75.26
2018-07-07T02:17:05.104Z,75.45
2018-07-07T02:18:58.505Z,75.54
2018-07-07T02:19:58.316Z,75.73
2018-07-07T02:21:51.593Z,75.93
2018-07-07T02:22:51.530Z,76.50
2018-07-07T02:24:44.825Z,76.31
2018-07-07T02:25:44.743Z,76.31
2018-07-07T02:27:38.036Z,76.89
2018-07-07T02:28:37.957Z,76.31
2018-07-07T02:30:31.231Z,76.21
2018-07-07T02:31:31.170Z,76.21
2018-07-07T02:33:24.466Z,76.69
2018-07-07T02:34:24.380Z,76.60
2018-07-07T02:36:17.655Z,76.89
2018-07-07T02:37:17.597Z,76.89
2018-07-07T02:39:10.889Z,77.36
2018-07-07T02:40:10.807Z,77.36
2018-07-07T02:42:04.082Z,77.26
2018-07-07T02:43:04.021Z,77.26
2018-07-07T02:44:57.484Z,77.65
2018-07-07T02:45:57.401Z,77.94
2018-07-07T02:47:50.710Z,77.75
2018-07-07T02:48:50.607Z,78.42
2018-07-07T02:50:43.882Z,78.42
2018-07-07T02:51:43.824Z,78.70
2018-07-07T02:53:37.114Z,78.51
2018-07-07T02:54:37.030Z,78.22
2018-07-07T02:56:30.333Z,78.42
2018-07-07T02:57:30.248Z,78.51
2018-07-07T02:59:23.536Z,79.18
2018-07-07T03:00:23.456Z,79.18
2018-07-07T03:02:16.733Z,79.43
2018-07-07T03:03:16.730Z,79.52
2018-07-07T03:05:09.961Z,79.75
2018-07-07T03:06:09.880Z,79.91
2018-07-07T03:08:03.148Z,79.91
2018-07-07T03:09:03.085Z,80.00
2018-07-07T03:10:56.376Z,80.58
2018-07-07T03:11:56.297Z,80.00
2018-07-07T03:13:49.590Z,80.48
2018-07-07T03:14:49.509Z,80.10
2018-07-07T03:16:42.784Z,80.58
2018-07-07T03:17:42.724Z,80.04
2018-07-07T03:19:36.024Z,80.14
2018-07-07T03:20:35.937Z,80.10
2018-07-07T03:22:29.208Z,80.87
2018-07-07T03:23:29.145Z,80.87
2018-07-07T03:25:22.546Z,81.15
2018-07-07T03:26:22.358Z,81.25
2018-07-07T03:28:15.627Z,80.77
2018-07-07T03:29:15.564Z,81.25
2018-07-07T03:31:08.859Z,81.25
2018-07-07T03:32:08.776Z,81.73
2018-07-07T03:34:02.073Z,81.92
2018-07-07T03:35:02.007Z,82.11
2018-07-07T03:36:55.488Z,82.30
2018-07-07T03:37:55.408Z,82.59
2018-07-07T03:39:48.707Z,83.36
2018-07-07T03:40:48.621Z,83.06
2018-07-07T03:42:41.896Z,83.45
2018-07-07T03:43:41.835Z,83.16
2018-07-07T03:45:35.126Z,84.12
2018-07-07T03:46:35.047Z,83.93
2018-07-07T03:48:28.425Z,84.02
2018-07-07T03:49:28.266Z,84.22
2018-07-07T03:51:21.556Z,84.31
2018-07-07T03:52:21.474Z,85.08
2018-07-07T03:54:14.750Z,84.98
2018-07-07T03:55:14.685Z,85.27
2018-07-07T03:57:07.980Z,85.17
2018-07-07T03:58:07.900Z,84.98
2018-07-07T04:00:01.193Z,84.88
2018-07-07T04:01:01.109Z,85.17
2018-07-07T04:02:54.383Z,85.08
2018-07-07T04:03:54.320Z,85.08
2018-07-07T04:05:47.612Z,85.27
2018-07-07T04:06:47.534Z,85.75
2018-07-07T04:08:40.806Z,85.94
2018-07-07T04:09:40.744Z,85.36
2018-07-07T04:11:34.042Z,85.75
2018-07-07T04:12:33.958Z,85.84
2018-07-07T04:14:27.250Z,86.51
2018-07-07T04:15:27.172Z,86.51
2018-07-07T04:17:20.549Z,86.41
2018-07-07T04:18:20.404Z,86.32
2018-07-07T04:20:13.699Z,86.22
2018-07-07T04:21:13.617Z,86.41
2018-07-07T04:23:06.892Z,86.99
2018-07-07T04:24:06.830Z,86.13
2018-07-07T04:26:01.123Z,86.13
2018-07-07T04:27:01.041Z,86.61
2018-07-07T04:28:54.466Z,87.18
2018-07-07T04:29:54.402Z,86.90
2018-07-07T04:31:47.802Z,86.70
2018-07-07T04:32:47.620Z,86.61
2018-07-07T04:34:40.890Z,86.32
2018-07-07T04:35:40.825Z,86.32
2018-07-07T04:37:34.122Z,86.41
2018-07-07T04:38:34.040Z,86.61
2018-07-07T04:40:27.333Z,86.70
2018-07-07T04:41:27.256Z,86.65
2018-07-07T04:43:21.527Z,86.84
2018-07-07T04:44:21.467Z,86.55
2018-07-07T04:46:14.761Z,85.79
2018-07-07T04:47:14.681Z,85.79
2018-07-07T04:49:07.960Z,85.41
2018-07-07T04:50:07.894Z,85.02
2018-07-07T04:52:01.190Z,86.17
2018-07-07T04:53:01.109Z,86.32
2018-07-07T04:54:54.472Z,86.51
2018-07-07T04:55:54.408Z,86.55
2018-07-07T04:57:47.708Z,85.88
2018-07-07T04:58:47.625Z,85.98
2018-07-07T05:00:40.920Z,86.65
2018-07-07T05:01:40.838Z,86.08
2018-07-07T05:03:34.113Z,86.65
2018-07-07T05:04:34.119Z,86.08
2018-07-07T05:06:27.348Z,86.17
2018-07-07T05:07:27.265Z,85.88
2018-07-07T05:09:20.543Z,85.79
2018-07-07T05:10:20.479Z,86.12
2018-07-07T05:12:13.777Z,85.79
2018-07-07T05:13:13.695Z,87.13
2018-07-07T05:15:06.972Z,87.51
2018-07-07T05:16:06.911Z,87.23
2018-07-07T05:18:00.204Z,87.90
2018-07-07T05:19:00.125Z,88.33
2018-07-07T05:20:53.420Z,89.48
2018-07-07T05:21:53.339Z,89.95
2018-07-07T05:23:46.633Z,89.72
2018-07-07T05:24:46.552Z,89.04
2018-07-07T05:26:39.853Z,89.23
2018-07-07T05:27:39.770Z,89.14
2018-07-07T05:29:33.151Z,88.37
2018-07-07T05:30:32.984Z,89.04
2018-07-07T05:32:26.494Z,88.76
2018-07-07T05:33:26.417Z,89.23
2018-07-07T05:35:19.688Z,89.90
2018-07-07T05:36:19.626Z,90.29
2018-07-07T05:38:12.940Z,89.81
2018-07-07T05:39:12.849Z,89.81
2018-07-07T05:41:06.226Z,89.62
2018-07-07T05:42:06.061Z,89.72
2018-07-07T05:43:59.354Z,89.28
2018-07-07T05:44:59.272Z,88.99
2018-07-07T05:46:52.568Z,88.80
2018-07-07T05:47:52.510Z,87.94
2018-07-07T05:49:45.764Z,88.03
2018-07-07T05:50:45.703Z,88.23
2018-07-07T05:52:38.999Z,88.70
2018-07-07T05:53:38.916Z,88.99
2018-07-07T05:55:32.195Z,90.14
2018-07-07T05:56:32.132Z,89.95
2018-07-07T05:58:25.429Z,90.23
2018-07-07T05:59:25.348Z,90.43
2018-07-07T06:01:18.627Z,89.76
2018-07-07T06:02:18.564Z,89.95
2018-07-07T06:04:11.861Z,89.86
2018-07-07T06:05:11.779Z,89.86
2018-07-07T06:07:05.077Z,90.43
2018-07-07T06:08:04.995Z,89.86
2018-07-07T06:09:59.271Z,89.86
2018-07-07T06:10:59.209Z,89.76
2018-07-07T06:12:52.507Z,89.95
2018-07-07T06:13:52.427Z,89.32
2018-07-07T06:15:45.703Z,88.75
2018-07-07T06:16:45.640Z,88.84
2018-07-07T06:18:38.928Z,87.55
2018-07-07T06:19:38.904Z,86.58
2018-07-07T06:21:32.131Z,84.33
2018-07-07T06:22:32.068Z,82.16
2018-07-07T06:24:25.378Z,78.02
2018-07-07T06:25:25.301Z,76.32
2018-07-07T06:27:18.608Z,74.98
2018-07-07T06:28:18.531Z,74.54
2018-07-07T06:30:11.822Z,73.57
2018-07-07T06:31:11.769Z,73.47
2018-07-07T06:33:05.182Z,72.36
2018-07-07T06:34:05.011Z,71.14
2018-07-07T06:35:58.480Z,68.23
2018-07-07T06:36:58.428Z,67.07
2018-07-07T06:38:51.743Z,64.37
2018-07-07T06:39:51.675Z,64.79
2018-07-07T06:41:44.977Z,63.47
2018-07-07T06:42:44.926Z,62.70
2018-07-07T06:44:39.239Z,61.64
2018-07-07T06:45:39.173Z,62.70
2018-07-07T06:47:32.502Z,66.71
2018-07-07T06:48:32.433Z,67.39
2018-07-07T06:50:25.733Z,67.19
2018-07-07T06:51:25.685Z,67.68
2018-07-07T06:53:19.015Z,65.30
2018-07-07T06:54:18.945Z,64.56
2018-07-07T06:56:12.480Z,64.82
2018-07-07T06:57:12.428Z,64.47
2018-07-07T06:59:05.747Z,63.63
2018-07-07T07:00:05.726Z,62.51
2018-07-07T07:01:58.984Z,60.51
2018-07-07T07:02:58.936Z,60.03
2018-07-07T07:04:52.257Z,60.51
2018-07-07T07:05:52.192Z,60.22
2018-07-07T07:07:45.504Z,61.48
2018-07-07T07:08:45.439Z,62.38
2018-07-07T07:10:38.741Z,61.35
2018-07-07T07:11:38.692Z,60.77
2018-07-07T07:13:32.015Z,60.42
2018-07-07T07:14:31.948Z,62.73
2018-07-07T07:16:25.253Z,60.64
2018-07-07T07:17:25.205Z,60.16
2018-07-07T07:19:18.536Z,61.58
2018-07-07T07:20:18.469Z,61.96
2018-07-07T07:22:11.770Z,61.96
2018-07-07T07:23:11.723Z,62.32
2018-07-07T07:25:05.050Z,62.41
2018-07-07T07:26:05.037Z,62.80
2018-07-07T07:27:58.473Z,60.49
2018-07-07T07:28:58.425Z,60.52
2018-07-07T07:30:51.749Z,57.97
2018-07-07T07:31:51.678Z,58.07
2018-07-07T07:33:46.002Z,61.55
2018-07-07T07:34:45.936Z,62.77
2018-07-07T07:36:39.244Z,64.15
2018-07-07T07:37:39.188Z,62.09
2018-07-07T07:39:32.516Z,58.97
2018-07-07T07:40:32.440Z,57.45
2018-07-07T07:42:25.744Z,57.62
2018-07-07T07:43:25.694Z,57.42
2018-07-07T07:45:20.013Z,58.52
2018-07-07T07:46:19.948Z,58.36
2018-07-07T07:48:13.244Z,57.42
2018-07-07T07:49:13.188Z,56.84
2018-07-07T07:51:06.512Z,58.65
2018-07-07T07:52:06.457Z,58.07
2018-07-07T07:53:59.748Z,57.16
2018-07-07T07:54:59.696Z,56.22
2018-07-07T07:56:53.123Z,54.05
2018-07-07T07:57:52.953Z,55.40
2018-07-07T07:59:46.499Z,55.78
2018-07-07T08:00:46.425Z,57.01
2018-07-07T08:02:39.749Z,56.16
2018-07-07T08:03:39.697Z,55.94
2018-07-07T08:05:33.021Z,54.36
2018-07-07T08:06:32.953Z,52.55
2018-07-07T08:08:27.255Z,51.46
2018-07-07T08:09:27.206Z,51.27
2018-07-07T08:11:20.527Z,50.65
2018-07-07T08:12:20.496Z,51.13
2018-07-07T08:14:13.775Z,50.43
2018-07-07T08:15:13.709Z,51.78
2018-07-07T08:17:07.031Z,55.85
2018-07-07T08:18:06.961Z,56.01
2018-07-07T08:20:01.296Z,57.27
2018-07-07T08:21:01.210Z,57.34
2018-07-07T08:22:54.540Z,57.07
2018-07-07T08:23:54.460Z,56.72
2018-07-07T08:25:47.773Z,57.05
2018-07-07T08:26:47.704Z,57.07
2018-07-07T08:28:40.993Z,56.79
2018-07-07T08:29:40.939Z,56.40
2018-07-07T08:31:34.261Z,54.28
2018-07-07T08:32:34.189Z,54.86
2018-07-07T08:34:27.625Z,56.40
2018-07-07T08:35:27.417Z,55.76
2018-07-07T08:37:20.722Z,54.11
2018-07-07T08:38:20.652Z,54.02
2018-07-07T08:40:13.947Z,54.86
2018-07-07T08:41:13.892Z,54.44
2018-07-07T08:43:07.208Z,54.50
2018-07-07T08:44:07.133Z,52.69
2018-07-07T08:46:00.496Z,53.15
2018-07-07T08:47:00.422Z,52.95
2018-07-07T08:48:53.716Z,53.03
2018-07-07T08:49:53.664Z,52.95
2018-07-07T08:51:46.974Z,51.82
2018-07-07T08:52:46.900Z,51.44
2018-07-07T08:54:40.194Z,49.75
2018-07-07T08:55:40.139Z,50.31
2018-07-07T08:57:33.454Z,51.15
2018-07-07T08:58:33.381Z,51.34
2018-07-07T09:00:26.678Z,50.86
2018-07-07T09:01:26.624Z,51.07
2018-07-07T09:03:19.933Z,50.50
2018-07-07T09:04:19.860Z,51.73
2018-07-07T09:06:13.270Z,51.07
2018-07-07T09:07:13.101Z,50.69
2018-07-07T09:09:06.475Z,51.92
2018-07-07T09:10:06.427Z,51.85
2018-07-07T09:12:00.733Z,51.56
2018-07-07T09:13:00.659Z,49.55
2018-07-07T09:14:53.953Z,48.21
2018-07-07T09:15:53.900Z,48.59
2018-07-07T09:17:48.199Z,47.65
2018-07-07T09:18:48.192Z,46.25
2018-07-07T09:20:41.425Z,46.36
2018-07-07T09:21:41.371Z,45.81
2018-07-07T09:23:34.683Z,44.47
2018-07-07T09:24:34.669Z,43.54
2018-07-07T09:26:27.922Z,43.60
2018-07-07T09:27:27.851Z,43.70
2018-07-07T09:29:21.151Z,46.25
2018-07-07T09:30:21.093Z,46.92
2018-07-07T09:32:14.487Z,45.68
2018-07-07T09:33:14.413Z,46.34
2018-07-07T09:35:07.712Z,46.73
2018-07-07T09:36:07.657Z,46.25
2018-07-07T09:38:00.964Z,48.23
2018-07-07T09:39:00.896Z,48.42
2018-07-07T09:40:54.188Z,49.37
2018-07-07T09:41:54.137Z,49.85
2018-07-07T09:43:47.447Z,48.97
2018-07-07T09:44:47.378Z,48.81
2018-07-07T09:46:40.691Z,48.32
2018-07-07T09:47:40.619Z,48.32
2018-07-07T09:49:33.915Z,48.06
2018-07-07T09:50:33.859Z,48.25
2018-07-07T09:52:27.174Z,47.89
2018-07-07T09:53:27.100Z,47.21
2018-07-07T09:55:20.475Z,45.83
2018-07-07T09:56:20.483Z,45.42
2018-07-07T09:58:13.729Z,45.90
2018-07-07T09:59:13.655Z,46.08
2018-07-07T10:01:07.053Z,47.14
2018-07-07T10:02:06.897Z,45.85
2018-07-07T10:04:00.210Z,43.96
2018-07-07T10:05:00.140Z,45.40
2018-07-07T10:06:53.532Z,46.17
2018-07-07T10:07:53.387Z,46.53
2018-07-07T10:09:46.696Z,46.34
2018-07-07T10:10:46.626Z,45.59
2018-07-07T10:12:40.942Z,44.84
2018-07-07T10:13:40.868Z,45.76
2018-07-07T10:15:34.162Z,46.73
2018-07-07T10:16:34.111Z,45.32
2018-07-07T10:18:27.417Z,43.62
2018-07-07T10:19:27.344Z,42.86
2018-07-07T10:21:20.678Z,41.16
2018-07-07T10:22:20.597Z,40.41
2018-07-07T10:24:13.954Z,39.18
2018-07-07T10:25:13.884Z,40.34
2018-07-07T10:27:07.187Z,42.54
2018-07-07T10:28:07.134Z,44.70
2018-07-07T10:30:00.488Z,44.72
2018-07-07T10:31:00.412Z,44.53
2018-07-07T10:32:53.737Z,45.08
2018-07-07T10:33:53.664Z,44.40
2018-07-07T10:35:46.962Z,45.28
2018-07-07T10:36:46.908Z,43.92
2018-07-07T10:38:40.218Z,43.00
2018-07-07T10:39:40.147Z,42.36
2018-07-07T10:41:33.444Z,42.24
2018-07-07T10:42:33.393Z,43.77
2018-07-07T10:44:26.714Z,43.87
2018-07-07T10:45:26.674Z,43.58
2018-07-07T10:47:19.953Z,44.70
2018-07-07T10:48:19.884Z,45.83
2018-07-07T10:50:13.224Z,45.86
2018-07-07T10:51:13.120Z,44.81
2018-07-07T10:53:06.499Z,44.40
2018-07-07T10:54:06.420Z,44.50
2018-07-07T10:55:59.835Z,44.62
2018-07-07T10:56:59.665Z,44.43
2018-07-07T10:58:52.999Z,45.66
2018-07-07T10:59:52.909Z,46.42
2018-07-07T11:01:46.207Z,47.38
2018-07-07T11:02:46.156Z,46.61
2018-07-07T11:04:39.472Z,45.18
2018-07-07T11:05:39.413Z,45.59
2018-07-07T11:07:32.697Z,43.29
2018-07-07T11:08:32.644Z,43.19
2018-07-07T11:10:25.961Z,42.11
2018-07-07T11:11:25.890Z,40.67
2018-07-07T11:13:20.313Z,40.48
2018-07-07T11:14:20.136Z,41.12
2018-07-07T11:16:13.433Z,41.82
2018-07-07T11:17:13.381Z,41.53
2018-07-07T11:19:06.700Z,40.69
2018-07-07T11:20:06.700Z,40.50
2018-07-07T11:21:59.923Z,40.62
2018-07-07T11:22:59.877Z,42.07
2018-07-07T11:24:53.192Z,44.74
2018-07-07T11:25:53.121Z,44.84
2018-07-07T11:27:46.514Z,44.84
2018-07-07T11:28:46.463Z,45.98
2018-07-07T11:30:40.779Z,45.59
2018-07-07T11:31:40.708Z,45.61
2018-07-07T11:33:34.039Z,44.57
2018-07-07T11:34:33.957Z,44.64
2018-07-07T11:36:27.288Z,45.03
2018-07-07T11:37:27.202Z,46.36
2018-07-07T11:39:21.518Z,44.47
2018-07-07T11:40:21.446Z,43.85
2018-07-07T11:42:14.787Z,44.60
2018-07-07T11:43:14.692Z,45.76
2018-07-07T11:45:08.008Z,46.36
2018-07-07T11:46:07.936Z,45.59
2018-07-07T11:48:01.224Z,46.25
2018-07-07T11:49:01.171Z,46.34
2018-07-07T11:50:54.501Z,46.05
2018-07-07T11:51:54.427Z,45.86
2018-07-07T11:53:47.746Z,46.51
2018-07-07T11:54:47.667Z,47.16
2018-07-07T11:56:40.959Z,47.48
2018-07-07T11:57:40.920Z,46.73
2018-07-07T11:59:34.217Z,46.53
2018-07-07T12:00:34.144Z,45.95
2018-07-07T12:02:27.436Z,45.76
2018-07-07T12:03:27.387Z,45.95
2018-07-07T12:05:20.701Z,46.34
2018-07-07T12:06:20.618Z,46.73
2018-07-07T12:08:14.254Z,46.34
2018-07-07T12:09:13.849Z,47.31
2018-07-07T12:11:07.261Z,47.79
2018-07-07T12:12:07.089Z,47.02
2018-07-07T12:14:01.412Z,47.38
2018-07-07T12:15:01.327Z,48.42
2018-07-07T12:16:54.617Z,47.50
2018-07-07T12:17:54.561Z,46.73
2018-07-07T12:19:48.879Z,47.16
2018-07-07T12:20:48.799Z,46.97
2018-07-07T12:22:42.200Z,47.48
2018-07-07T12:23:42.028Z,47.69
2018-07-07T12:25:36.492Z,46.92
2018-07-07T12:26:36.419Z,47.41
2018-07-07T12:28:29.711Z,47.43
2018-07-07T12:29:29.666Z,46.84
2018-07-07T12:31:23.019Z,47.11
2018-07-07T12:32:22.893Z,47.99
2018-07-07T12:34:16.185Z,47.38
2018-07-07T12:35:16.128Z,47.86
2018-07-07T12:37:09.448Z,47.79
2018-07-07T12:38:09.366Z,47.14
2018-07-07T12:40:02.677Z,46.83
2018-07-07T12:41:02.604Z,47.60
2018-07-07T12:42:55.895Z,47.79
2018-07-07T12:43:55.841Z,47.89
2018-07-07T12:45:49.165Z,47.41
2018-07-07T12:46:49.076Z,47.31
2018-07-07T12:48:42.470Z,47.21
2018-07-07T12:49:42.416Z,47.04
2018-07-07T12:51:35.726Z,46.94
2018-07-07T12:52:35.655Z,46.73
2018-07-07T12:54:28.940Z,47.43
2018-07-07T12:55:28.882Z,47.33
2018-07-07T12:57:22.292Z,47.06
2018-07-07T12:58:22.119Z,46.48
2018-07-07T13:00:15.431Z,46.97
2018-07-07T13:01:15.394Z,46.58
2018-07-07T13:03:08.751Z,46.22
2018-07-07T13:04:08.593Z,45.64
2018-07-07T13:06:02.005Z,45.07
2018-07-07T13:07:01.869Z,44.96
2018-07-07T13:08:55.121Z,46.48
2018-07-07T13:09:55.074Z,46.48
2018-07-07T13:11:48.493Z,45.51
2018-07-07T13:12:48.424Z,46.48
2018-07-07T13:14:41.720Z,46.00
2018-07-07T13:15:41.660Z,46.29
2018-07-07T13:17:34.970Z,46.09
2018-07-07T13:18:34.897Z,46.60
2018-07-07T13:20:28.208Z,46.75
2018-07-07T13:21:28.133Z,47.62
2018-07-07T13:23:21.424Z,47.81
2018-07-07T13:24:21.369Z,47.33
2018-07-07T13:26:14.684Z,48.37
2018-07-07T13:27:14.610Z,48.20
2018-07-07T13:29:07.900Z,46.67
2018-07-07T13:30:07.845Z,46.67
2018-07-07T13:32:01.158Z,46.58
2018-07-07T13:33:01.085Z,46.48
2018-07-07T13:34:54.478Z,45.98
2018-07-07T13:35:54.420Z,46.66
2018-07-07T13:37:47.724Z,46.94
2018-07-07T13:38:47.664Z,47.04
2018-07-07T13:40:40.971Z,47.45
2018-07-07T13:41:40.885Z,46.97
2018-07-07T13:43:34.279Z,46.48
2018-07-07T13:44:34.122Z,47.55
2018-07-07T13:46:27.438Z,46.77
2018-07-07T13:47:27.363Z,47.04
2018-07-07T13:49:20.654Z,47.33
2018-07-07T13:50:20.598Z,47.60
2018-07-07T13:52:14.920Z,47.45
2018-07-07T13:53:14.833Z,47.16
2018-07-07T13:55:08.127Z,46.31
2018-07-07T13:56:08.070Z,46.31
2018-07-07T13:58:01.380Z,45.54
2018-07-07T13:59:01.299Z,45.83
2018-07-07T14:00:54.591Z,46.41
2018-07-07T14:01:54.537Z,46.31
2018-07-07T14:03:47.848Z,45.65
2018-07-07T14:04:47.774Z,45.65
2018-07-07T14:06:41.085Z,45.64
2018-07-07T14:07:41.014Z,46.19
2018-07-07T14:09:34.521Z,46.31
2018-07-07T14:10:34.419Z,46.31
2018-07-07T14:12:27.732Z,46.22
2018-07-07T14:13:27.657Z,45.75
2018-07-07T14:15:20.949Z,46.84
2018-07-07T14:16:20.897Z,47.55
2018-07-07T14:18:14.200Z,47.26
2018-07-07T14:19:14.127Z,46.77
2018-07-07T14:21:07.418Z,46.39
2018-07-07T14:22:07.365Z,46.48
2018-07-07T14:24:00.676Z,46.94
2018-07-07T14:25:00.602Z,47.45
2018-07-07T14:26:53.942Z,46.80
2018-07-07T14:27:53.837Z,45.73
2018-07-07T14:29:48.229Z,45.92
2018-07-07T14:30:48.074Z,46.60
2018-07-07T14:32:41.383Z,45.64
2018-07-07T14:33:41.309Z,45.47
2018-07-07T14:35:34.605Z,44.49
2018-07-07T14:36:34.549Z,44.47
2018-07-07T14:38:27.895Z,45.42
2018-07-07T14:39:27.787Z,45.73
2018-07-07T14:41:21.078Z,45.61
2018-07-07T14:42:21.024Z,45.73
2018-07-07T14:44:14.491Z,45.42
2018-07-07T14:45:14.428Z,46.19
2018-07-07T14:47:07.732Z,46.19
2018-07-07T14:48:07.655Z,46.19
2018-07-07T14:50:00.956Z,45.90
2018-07-07T14:51:00.908Z,46.00
2018-07-07T14:52:54.214Z,46.48
2018-07-07T14:53:54.134Z,46.75
2018-07-07T14:55:47.529Z,46.48
2018-07-07T14:56:47.375Z,46.29
2018-07-07T14:58:40.689Z,46.48
2018-07-07T14:59:40.615Z,46.48
2018-07-07T15:01:34.927Z,46.80
2018-07-07T15:02:34.866Z,46.51
2018-07-07T15:04:28.179Z,44.78
2018-07-07T15:05:28.107Z,46.09
2018-07-07T15:07:21.496Z,46.66
2018-07-07T15:08:21.346Z,46.67
2018-07-07T15:10:14.654Z,46.41
2018-07-07T15:11:14.578Z,45.54
2018-07-07T15:13:07.871Z,45.25
2018-07-07T15:14:07.816Z,44.68
2018-07-07T15:16:02.134Z,44.96
2018-07-07T15:17:02.059Z,44.98
2018-07-07T15:18:55.452Z,44.01
2018-07-07T15:19:55.296Z,44.10
2018-07-07T15:21:48.712Z,44.40
2018-07-07T15:22:48.700Z,44.57
2018-07-07T15:24:42.846Z,44.76
2018-07-07T15:25:42.773Z,44.57
2018-07-07T15:27:36.068Z,44.47
2018-07-07T15:28:36.013Z,44.59
2018-07-07T15:30:29.321Z,44.67
2018-07-07T15:31:29.247Z,44.76
2018-07-07T15:33:22.560Z,44.88
2018-07-07T15:34:22.530Z,44.68
2018-07-07T15:36:15.777Z,45.34
2018-07-07T15:37:15.722Z,45.34
2018-07-07T15:39:09.032Z,45.15
2018-07-07T15:40:08.966Z,45.64
2018-07-07T15:42:02.471Z,44.68
2018-07-07T15:43:02.416Z,44.78
2018-07-07T15:44:55.728Z,44.67
2018-07-07T15:45:55.706Z,45.73
2018-07-07T15:47:48.936Z,45.54
2018-07-07T15:48:48.883Z,45.44
2018-07-07T15:50:42.195Z,44.78
2018-07-07T15:51:42.120Z,44.20
2018-07-07T15:53:35.486Z,44.90
2018-07-07T15:54:35.360Z,44.68
2018-07-07T15:56:28.653Z,45.83
2018-07-07T15:57:28.599Z,45.15
2018-07-07T15:59:22.911Z,44.01
2018-07-07T16:00:22.837Z,44.78
2018-07-07T16:02:16.139Z,44.59
2018-07-07T16:03:16.086Z,44.78
2018-07-07T16:05:10.995Z,44.78
2018-07-07T16:06:10.431Z,44.59
2018-07-07T16:08:03.716Z,45.54
2018-07-07T16:09:03.661Z,45.92
2018-07-07T16:10:57.977Z,46.24
2018-07-07T16:11:57.901Z,46.33
2018-07-07T16:13:51.243Z,45.87
2018-07-07T16:14:51.153Z,45.29
2018-07-07T16:16:44.543Z,44.78
2018-07-07T16:17:44.421Z,45.75
2018-07-07T16:19:37.735Z,45.78
2018-07-07T16:20:37.668Z,45.29
2018-07-07T16:22:31.958Z,44.86
2018-07-07T16:23:31.909Z,45.54
2018-07-07T16:25:25.223Z,45.64
2018-07-07T16:26:25.148Z,45.92
2018-07-07T16:28:18.479Z,46.39
2018-07-07T16:29:18.419Z,46.29
2018-07-07T16:31:11.737Z,46.80
2018-07-07T16:32:11.664Z,46.24
2018-07-07T16:34:04.957Z,45.47
2018-07-07T16:35:04.904Z,45.37
2018-07-07T16:36:58.215Z,45.83
2018-07-07T16:37:58.140Z,45.83
2018-07-07T16:39:51.456Z,46.02
2018-07-07T16:40:51.379Z,45.92
2018-07-07T16:42:44.685Z,45.83
2018-07-07T16:43:44.618Z,46.48
2018-07-07T16:45:37.930Z,46.48
2018-07-07T16:46:37.857Z,46.29
2018-07-07T16:48:31.256Z,46.00
2018-07-07T16:49:31.094Z,45.73
2018-07-07T16:51:24.490Z,46.00
2018-07-07T16:52:24.412Z,45.44
2018-07-07T16:54:17.705Z,45.54
2018-07-07T16:55:17.649Z,45.51
2018-07-07T16:57:11.059Z,46.60
2018-07-07T16:58:10.903Z,45.54
2018-07-07T17:00:04.209Z,45.64
2018-07-07T17:01:04.122Z,45.34
2018-07-07T17:02:57.421Z,45.83
2018-07-07T17:03:57.364Z,46.02
2018-07-07T17:05:50.691Z,46.60
2018-07-07T17:06:50.605Z,46.41
2018-07-07T17:08:43.894Z,47.36
2018-07-07T17:09:43.852Z,47.26
2018-07-07T17:11:37.244Z,47.45
2018-07-07T17:12:37.072Z,47.06
2018-07-07T17:14:31.365Z,47.36
2018-07-07T17:15:31.311Z,47.45
2018-07-07T17:17:24.728Z,48.11
2018-07-07T17:18:24.582Z,48.30
2018-07-07T17:20:17.960Z,48.42
2018-07-07T17:21:17.782Z,48.01
2018-07-07T17:23:11.074Z,49.07
2018-07-07T17:24:11.018Z,48.49
2018-07-07T17:26:04.494Z,48.11
2018-07-07T17:27:04.416Z,48.30
2018-07-07T17:28:57.713Z,48.11
2018-07-07T17:29:57.658Z,48.30
2018-07-07T17:31:50.964Z,48.20
2018-07-07T17:32:50.891Z,48.59
2018-07-07T17:34:44.185Z,48.95
2018-07-07T17:35:44.127Z,49.46
2018-07-07T17:37:37.452Z,48.30
2018-07-07T17:38:37.371Z,48.47
2018-07-07T17:40:30.664Z,48.97
2018-07-07T17:41:30.607Z,49.24
2018-07-07T17:43:23.920Z,49.17
2018-07-07T17:44:23.841Z,49.27
2018-07-07T17:46:17.154Z,49.27
2018-07-07T17:47:17.076Z,49.27
2018-07-07T17:49:10.487Z,50.12
2018-07-07T17:50:10.426Z,50.70
2018-07-07T17:52:03.735Z,50.70
2018-07-07T17:53:03.661Z,50.70
2018-07-07T17:54:56.950Z,50.40
2018-07-07T17:55:56.895Z,50.60
2018-07-07T17:57:50.198Z,50.98
2018-07-07T17:58:50.123Z,50.98
2018-07-07T18:00:43.517Z,50.98
2018-07-07T18:01:43.354Z,50.98
2018-07-07T18:03:36.666Z,51.18
2018-07-07T18:04:36.589Z,51.44
2018-07-07T18:06:29.900Z,51.76
2018-07-07T18:07:29.835Z,51.56
2018-07-07T18:09:23.114Z,50.60
2018-07-07T18:10:23.055Z,51.37
2018-07-07T18:12:17.368Z,51.44
2018-07-07T18:13:17.292Z,51.73
2018-07-07T18:15:10.585Z,51.73
2018-07-07T18:16:10.525Z,51.61
2018-07-07T18:18:03.855Z,51.32
2018-07-07T18:19:03.791Z,51.32
2018-07-07T18:20:57.049Z,50.65
2018-07-07T18:21:56.990Z,50.45
2018-07-07T18:23:50.494Z,50.52
2018-07-07T18:24:50.416Z,50.33
2018-07-07T18:26:43.734Z,50.23
2018-07-07T18:27:43.660Z,50.52
2018-07-07T18:29:36.955Z,50.52
2018-07-07T18:30:36.895Z,51.37
2018-07-07T18:32:30.209Z,51.20
2018-07-07T18:33:30.127Z,51.39
2018-07-07T18:35:23.420Z,50.71